Alicia, Argentina
Current Conditions -  °F | °C
As of 11:00 AM on Wednesday 22 Oct 2014 (Local Time) from SACO Reporting Station
Clear Clear  
Wind Chill: 84°   Ceiling: Unl
Heat Index: 84°   Visibility: 6mi
Dew Point: 43°   Wind: 20mph
Humidity: 23%   Direction: 20°NNE
Pressure: 30.03"   Gusts: NA
Location:  31.99°S, 62.47°W
Report Text: SACO 221400Z 02017KT CAVOK 29/06 Q1017
Loading
Personal Weather Stations






























Interactive Weather Map
Tropical Storm Tracking
New forecast layout! Learn more

10-Day Weather Forecast

Advertisements
Track Severe Weather on mobile